Time;durP1;ratioP1;P1;durP2;ratioP2;P2;SDS_P1;SDS_P2;PMS_P1;PMS_P2;Temp;Humidity;BMP_temperature;BMP_pressure;BME280_temperature;BME280_humidity;BME280_pressure;Samples;Min_cycle;Max_cycle;Signal;HPM_P1;HPM_P2
2021/06/29 00:00:30;;;;;;;19.92;10.55;;;21.40;91.00;;;;;;5070760;28;20463;-80
2021/06/29 00:03:04;;;;;;;18.25;11.13;;;21.40;91.00;;;;;;5069946;28;20036;-81
2021/06/29 00:05:31;;;;;;;18.00;9.98;;;21.40;91.00;;;;;;5071725;28;20083;-81
2021/06/29 00:07:58;;;;;;;18.77;11.25;;;21.40;91.00;;;;;;5069555;28;20481;-81
2021/06/29 00:10:27;;;;;;;18.77;9.95;;;21.40;91.10;;;;;;5070703;28;20490;-81
2021/06/29 00:12:53;;;;;;;19.48;11.20;;;21.30;91.10;;;;;;5069981;28;20491;-80
2021/06/29 00:15:20;;;;;;;18.38;11.32;;;21.30;91.10;;;;;;5070341;28;20488;-81
2021/06/29 00:17:46;;;;;;;20.65;11.27;;;21.30;91.10;;;;;;5070565;28;20013;-82
2021/06/29 00:20:12;;;;;;;22.13;11.20;;;21.30;91.10;;;;;;5070021;28;20037;-81
2021/06/29 00:22:38;;;;;;;20.70;11.07;;;21.30;91.10;;;;;;5070444;28;20033;-81
2021/06/29 00:25:05;;;;;;;22.70;11.77;;;21.30;91.20;;;;;;5070030;28;20016;-81
2021/06/29 00:27:30;;;;;;;16.98;10.38;;;21.20;91.10;;;;;;5070475;28;20099;-81
2021/06/29 00:29:56;;;;;;;19.30;11.25;;;21.20;91.10;;;;;;5071195;28;20139;-81
2021/06/29 00:32:22;;;;;;;18.85;11.13;;;21.20;91.20;;;;;;5071469;28;20020;-81
2021/06/29 00:34:47;;;;;;;17.05;9.63;;;21.20;91.20;;;;;;5070487;28;20017;-80
2021/06/29 00:37:14;;;;;;;21.13;10.27;;;21.20;91.20;;;;;;5071072;28;20338;-81
2021/06/29 00:39:40;;;;;;;17.50;10.18;;;21.10;91.20;;;;;;5070335;28;20020;-80
2021/06/29 00:42:06;;;;;;;19.70;10.95;;;21.20;91.30;;;;;;5071513;28;20021;-80
2021/06/29 00:44:31;;;;;;;17.38;9.80;;;21.10;91.30;;;;;;5070312;28;20025;-81
2021/06/29 00:46:58;;;;;;;19.67;10.70;;;21.10;91.30;;;;;;5071017;28;20028;-81
2021/06/29 00:49:23;;;;;;;16.13;10.02;;;21.10;91.30;;;;;;5071538;28;20016;-81
2021/06/29 00:51:49;;;;;;;19.92;10.02;;;21.10;91.30;;;;;;5071316;28;20529;-81
2021/06/29 00:54:15;;;;;;;13.55;8.60;;;21.10;91.30;;;;;;5069688;28;20033;-80
2021/06/29 00:56:44;;;;;;;17.63;10.18;;;21.10;91.30;;;;;;5070005;28;20452;-80
2021/06/29 00:59:11;;;;;;;18.27;9.90;;;21.10;91.30;;;;;;5069569;28;20028;-81
2021/06/29 01:01:36;;;;;;;17.80;9.55;;;21.10;91.30;;;;;;5069962;28;20472;-80
2021/06/29 01:04:03;;;;;;;17.65;10.02;;;21.10;91.30;;;;;;5069197;28;20035;-81
2021/06/29 01:06:29;;;;;;;14.10;9.35;;;21.10;91.30;;;;;;5069928;28;20057;-81
2021/06/29 01:08:55;;;;;;;16.17;9.50;;;21.10;91.30;;;;;;5070218;28;20031;-82
2021/06/29 01:11:21;;;;;;;20.80;9.85;;;21.10;91.30;;;;;;5069508;28;20452;-80
2021/06/29 01:13:47;;;;;;;15.43;10.15;;;21.10;91.20;;;;;;5071303;28;20028;-81
2021/06/29 01:16:14;;;;;;;17.40;10.30;;;21.10;91.20;;;;;;5069419;28;20020;-80
2021/06/29 01:18:41;;;;;;;17.73;10.00;;;21.10;91.20;;;;;;5070053;28;20021;-80
2021/06/29 01:21:18;;;;;;;19.15;9.68;;;21.10;91.30;;;;;;5069301;28;20120;-80
2021/06/29 01:23:53;;;;;;;14.88;8.98;;;21.10;91.30;;;;;;5070039;28;20033;-80
2021/06/29 01:31:21;;;;;;;17.08;8.98;;;21.00;91.30;;;;;;5074110;28;20032;-80
2021/06/29 01:33:47;;;;;;;16.77;9.07;;;21.00;91.40;;;;;;5074636;28;20024;-80
2021/06/29 01:36:18;;;;;;;13.18;7.53;;;21.10;91.40;;;;;;5073710;28;20370;-80
2021/06/29 01:38:45;;;;;;;18.23;8.35;;;21.00;91.40;;;;;;5073324;28;20102;-81
2021/06/29 01:41:15;;;;;;;17.45;9.30;;;21.00;91.40;;;;;;5072620;28;20032;-81
2021/06/29 01:44:08;;;;;;;14.77;7.80;;;21.00;91.50;;;;;;5074502;28;20025;-81
2021/06/29 01:46:31;;;;;;;13.70;7.90;;;21.00;91.50;;;;;;5074200;28;20460;-81
2021/06/29 01:48:57;;;;;;;16.90;9.27;;;20.90;91.40;;;;;;5074409;28;20017;-81
2021/06/29 01:51:23;;;;;;;15.43;7.95;;;20.90;91.50;;;;;;5072331;28;20078;-81
2021/06/29 01:53:52;;;;;;;17.75;9.15;;;20.90;91.50;;;;;;5074071;28;20052;-81
2021/06/29 01:56:27;;;;;;;17.00;9.23;;;20.90;91.50;;;;;;5072466;28;20023;-80
2021/06/29 01:58:55;;;;;;;21.05;9.48;;;20.90;91.50;;;;;;5073056;28;20025;-80
2021/06/29 02:01:22;;;;;;;18.20;8.65;;;20.90;91.60;;;;;;5072248;28;20031;-80
2021/06/29 02:03:48;;;;;;;19.10;9.70;;;20.90;91.60;;;;;;5072748;28;20430;-79
2021/06/29 02:06:14;;;;;;;18.75;8.98;;;20.90;91.60;;;;;;5071905;28;20041;-80
2021/06/29 02:08:40;;;;;;;16.10;8.70;;;20.90;91.70;;;;;;5072712;28;20115;-80
2021/06/29 02:11:06;;;;;;;16.27;8.77;;;20.90;91.70;;;;;;5072076;28;20112;-81
2021/06/29 02:13:31;;;;;;;17.80;9.02;;;20.80;91.70;;;;;;5074017;28;20056;-81
2021/06/29 02:15:59;;;;;;;15.68;9.13;;;20.80;91.80;;;;;;5073202;28;20037;-81
2021/06/29 02:18:24;;;;;;;16.05;8.30;;;20.80;91.80;;;;;;5073429;28;20043;-80
2021/06/29 02:20:50;;;;;;;18.45;8.68;;;20.80;91.80;;;;;;5072710;28;20453;-81
2021/06/29 02:23:17;;;;;;;15.50;8.75;;;20.80;91.80;;;;;;5071416;28;20464;-81
2021/06/29 02:25:43;;;;;;;13.45;7.68;;;20.80;91.80;;;;;;5073749;28;20039;-81
2021/06/29 02:28:09;;;;;;;16.13;8.70;;;20.80;91.90;;;;;;5072806;28;20039;-80
2021/06/29 02:30:35;;;;;;;15.95;8.23;;;20.80;91.90;;;;;;5072403;28;20066;-81
2021/06/29 02:33:01;;;;;;;14.07;8.65;;;20.80;92.00;;;;;;5073347;28;20099;-81
2021/06/29 02:35:28;;;;;;;13.88;8.10;;;20.80;92.00;;;;;;5072270;28;20024;-80
2021/06/29 02:37:54;;;;;;;15.00;8.18;;;20.80;92.10;;;;;;5072021;28;20377;-80
2021/06/29 02:40:20;;;;;;;14.32;8.10;;;20.80;92.10;;;;;;5071507;28;20017;-81
2021/06/29 02:42:46;;;;;;;14.43;8.05;;;20.70;92.10;;;;;;5073284;28;20086;-80
2021/06/29 02:45:17;;;;;;;15.13;7.78;;;20.70;92.20;;;;;;5071351;28;20020;-80
2021/06/29 02:47:42;;;;;;;;;;;20.70;92.20;;;;;;5073743;28;20017;-80
2021/06/29 02:50:09;;;;;;;13.98;8.15;;;20.60;92.10;;;;;;5071287;28;19910;-80
2021/06/29 02:52:36;;;;;;;16.33;8.80;;;20.60;92.20;;;;;;5071873;28;20023;-80
2021/06/29 02:55:04;;;;;;;17.80;8.77;;;20.60;92.30;;;;;;5073150;28;20024;-80
2021/06/29 02:57:29;;;;;;;20.35;9.32;;;20.60;92.30;;;;;;5073065;28;20021;-80
2021/06/29 02:59:55;;;;;;;16.02;8.98;;;20.60;92.30;;;;;;5072799;28;20028;-80
2021/06/29 03:02:21;;;;;;;18.75;8.82;;;20.60;92.30;;;;;;5071016;28;20077;-80
2021/06/29 03:04:46;;;;;;;18.52;9.88;;;20.60;92.30;;;;;;5072457;28;20024;-80
2021/06/29 03:07:12;;;;;;;16.08;8.60;;;20.60;92.30;;;;;;5070954;28;20028;-79
2021/06/29 03:09:38;;;;;;;19.25;9.48;;;20.60;92.30;;;;;;5071473;28;20111;-82
2021/06/29 03:12:04;;;;;;;17.58;8.80;;;20.60;92.40;;;;;;5072587;28;20036;-80
2021/06/29 03:14:34;;;;;;;17.55;9.05;;;20.70;92.40;;;;;;5072737;28;20078;-80
2021/06/29 03:17:00;;;;;;;17.55;9.43;;;20.70;92.40;;;;;;5071600;28;20020;-80
2021/06/29 03:19:26;;;;;;;16.35;8.50;;;20.70;92.40;;;;;;5070746;28;20024;-81
2021/06/29 03:21:52;;;;;;;13.80;7.93;;;20.70;92.40;;;;;;5071387;28;20028;-80
2021/06/29 03:24:17;;;;;;;16.63;9.27;;;20.70;92.40;;;;;;5070495;28;20376;-80
2021/06/29 03:26:43;;;;;;;14.68;7.95;;;20.70;92.40;;;;;;5071964;28;20117;-80
2021/06/29 03:29:08;;;;;;;15.75;8.40;;;20.70;92.40;;;;;;5071835;28;20055;-81
2021/06/29 03:31:34;;;;;;;17.55;9.43;;;20.70;92.40;;;;;;5071082;28;20380;-80
2021/06/29 03:34:00;;;;;;;18.10;9.73;;;20.70;92.40;;;;;;5072249;28;20411;-80
2021/06/29 03:36:26;;;;;;;18.33;9.48;;;20.70;92.50;;;;;;5070496;28;20650;-80
2021/06/29 03:38:51;;;;;;;17.92;9.07;;;20.70;92.50;;;;;;5072400;28;20096;-81
2021/06/29 03:41:17;;;;;;;16.33;8.57;;;20.70;92.50;;;;;;5071427;28;20024;-80
2021/06/29 03:43:44;;;;;;;14.85;8.27;;;20.70;92.50;;;;;;5071020;28;20046;-82
2021/06/29 03:46:09;;;;;;;18.08;9.25;;;20.80;92.50;;;;;;5070339;28;20060;-80
2021/06/29 03:48:35;;;;;;;13.95;8.32;;;20.80;92.50;;;;;;5070833;28;20468;-80
2021/06/29 03:51:01;;;;;;;20.02;9.63;;;20.80;92.40;;;;;;5071932;28;20407;-80
2021/06/29 03:53:27;;;;;;;15.63;8.98;;;20.80;92.40;;;;;;5070203;28;20427;-80
2021/06/29 03:55:53;;;;;;;15.45;9.38;;;20.80;92.40;;;;;;5070801;28;20021;-80
2021/06/29 03:58:19;;;;;;;23.73;13.25;;;20.80;92.40;;;;;;5070191;28;20028;-80
2021/06/29 04:00:45;;;;;;;18.80;10.35;;;20.80;92.40;;;;;;5072032;28;20109;-79
2021/06/29 04:03:11;;;;;;;16.50;9.38;;;20.80;92.40;;;;;;5070953;28;20135;-80
2021/06/29 04:05:36;;;;;;;17.77;9.63;;;20.80;92.40;;;;;;5071573;28;20080;-80
2021/06/29 04:08:02;;;;;;;17.98;9.90;;;20.80;92.50;;;;;;5071994;28;20471;-80
2021/06/29 04:10:28;;;;;;;17.63;9.82;;;20.80;92.50;;;;;;5070994;28;20553;-80
2021/06/29 04:12:54;;;;;;;19.15;9.98;;;20.80;92.50;;;;;;5071657;28;20039;-80
2021/06/29 04:15:19;;;;;;;16.10;8.93;;;20.80;92.50;;;;;;5071202;28;20028;-80
2021/06/29 04:17:45;;;;;;;16.85;8.50;;;20.80;92.50;;;;;;5070570;28;20027;-80
2021/06/29 04:20:11;;;;;;;18.55;9.95;;;20.80;92.50;;;;;;5070010;28;20021;-80
2021/06/29 04:22:37;;;;;;;16.65;9.02;;;20.90;92.50;;;;;;5070650;28;20407;-80
2021/06/29 04:25:05;;;;;;;16.17;9.68;;;20.90;92.50;;;;;;5071961;28;20020;-80
2021/06/29 04:27:31;;;;;;;18.30;8.80;;;20.90;92.50;;;;;;5071142;28;20024;-80
2021/06/29 04:29:56;;;;;;;19.58;9.73;;;20.90;92.40;;;;;;5071613;28;20031;-80
2021/06/29 04:32:22;;;;;;;15.50;8.93;;;20.80;92.50;;;;;;5070669;28;20111;-80
2021/06/29 04:34:48;;;;;;;18.15;9.43;;;20.80;92.50;;;;;;5071548;28;20028;-80
2021/06/29 04:37:14;;;;;;;18.60;9.73;;;20.80;92.50;;;;;;5069674;28;20021;-81
2021/06/29 04:39:39;;;;;;;17.95;8.95;;;20.80;92.50;;;;;;5070147;28;20055;-80
2021/06/29 04:42:05;;;;;;;19.20;10.05;;;20.90;92.50;;;;;;5070284;28;20020;-80
2021/06/29 04:44:31;;;;;;;18.17;9.48;;;20.90;92.50;;;;;;5070038;28;20673;-80
2021/06/29 04:46:57;;;;;;;15.98;8.60;;;20.90;92.50;;;;;;5071756;28;20021;-80
2021/06/29 04:49:26;;;;;;;19.63;9.95;;;20.90;92.40;;;;;;5070941;28;20467;-80
2021/06/29 04:51:51;;;;;;;16.67;9.80;;;21.00;92.40;;;;;;5071291;28;20073;-81
2021/06/29 04:54:17;;;;;;;19.00;9.20;;;21.00;92.40;;;;;;5070811;28;20461;-79
2021/06/29 04:56:43;;;;;;;17.65;9.32;;;21.00;92.40;;;;;;5071496;28;20020;-80
2021/06/29 04:59:08;;;;;;;17.65;8.70;;;21.00;92.40;;;;;;5071781;28;20034;-80
2021/06/29 05:01:34;;;;;;;18.08;10.02;;;21.10;92.30;;;;;;5070621;28;20021;-81
2021/06/29 05:04:00;;;;;;;21.02;10.05;;;21.10;92.40;;;;;;5073918;28;20033;-80
2021/06/29 05:06:25;;;;;;;17.65;9.93;;;21.10;92.40;;;;;;5072641;28;20079;-81
2021/06/29 05:08:51;;;;;;;19.13;10.43;;;21.10;92.40;;;;;;5075170;28;20024;-80
2021/06/29 05:11:17;;;;;;;18.77;9.93;;;21.10;92.30;;;;;;5074332;28;20056;-80
2021/06/29 05:13:43;;;;;;;18.95;9.50;;;21.10;92.40;;;;;;5075060;28;20031;-80
2021/06/29 05:16:09;;;;;;;19.92;9.80;;;21.10;92.40;;;;;;5075054;28;20130;-80
2021/06/29 05:18:34;;;;;;;19.25;10.00;;;21.10;92.40;;;;;;5073100;28;20381;-80
2021/06/29 05:21:00;;;;;;;19.05;9.52;;;21.10;92.40;;;;;;5073593;28;20039;-80
2021/06/29 05:23:26;;;;;;;20.40;10.50;;;21.10;92.40;;;;;;5072880;28;20132;-80
2021/06/29 05:25:52;;;;;;;16.63;8.73;;;21.10;92.40;;;;;;5074816;28;20096;-80
2021/06/29 05:28:19;;;;;;;20.27;10.00;;;21.10;92.40;;;;;;5072962;28;20024;-81
2021/06/29 05:30:47;;;;;;;22.35;10.45;;;21.20;92.40;;;;;;5073247;28;20479;-80
2021/06/29 05:33:13;;;;;;;20.52;11.00;;;21.20;92.30;;;;;;5074885;28;20032;-80
2021/06/29 05:35:39;;;;;;;17.20;9.77;;;21.20;92.30;;;;;;5072818;28;20544;-80
2021/06/29 05:38:05;;;;;;;20.77;9.68;;;21.20;92.30;;;;;;5073269;28;20052;-82
2021/06/29 05:40:30;;;;;;;17.52;9.15;;;21.20;92.20;;;;;;5072595;28;20059;-80
2021/06/29 05:42:56;;;;;;;15.65;9.30;;;21.30;92.20;;;;;;5073189;28;20500;-80
2021/06/29 05:45:21;;;;;;;15.23;8.65;;;21.20;92.20;;;;;;5073677;28;20024;-80
2021/06/29 05:47:48;;;;;;;17.40;8.90;;;21.30;92.20;;;;;;5073159;28;20070;-81
2021/06/29 05:50:14;;;;;;;16.27;8.68;;;21.20;92.20;;;;;;5073224;28;20024;-80
2021/06/29 05:52:40;;;;;;;15.07;8.57;;;21.20;92.30;;;;;;5072475;28;20115;-82
2021/06/29 05:55:08;;;;;;;17.15;9.10;;;21.20;92.30;;;;;;5073021;28;20028;-81
2021/06/29 05:57:36;;;;;;;16.10;8.73;;;21.20;92.30;;;;;;5071961;28;20048;-82
2021/06/29 06:00:08;;;;;;;18.75;8.95;;;21.20;92.30;;;;;;5072892;28;20016;-81
2021/06/29 06:02:34;;;;;;;20.40;9.63;;;21.20;92.30;;;;;;5072217;28;20017;-81
2021/06/29 06:04:59;;;;;;;16.77;8.75;;;21.20;92.30;;;;;;5072791;28;20032;-82
2021/06/29 06:07:25;;;;;;;17.88;9.60;;;21.20;92.30;;;;;;5073631;28;20049;-80
2021/06/29 06:09:51;;;;;;;17.30;9.75;;;21.20;92.30;;;;;;5072775;28;20028;-82
2021/06/29 06:12:16;;;;;;;20.55;10.27;;;21.30;92.20;;;;;;5073256;28;20021;-80
2021/06/29 06:14:42;;;;;;;18.58;10.20;;;21.30;92.10;;;;;;5072253;28;20029;-81
2021/06/29 06:17:08;;;;;;;19.08;9.57;;;21.30;92.10;;;;;;5072515;28;20448;-81
2021/06/29 06:19:33;;;;;;;19.05;10.15;;;21.40;92.10;;;;;;5071964;28;20037;-81
2021/06/29 06:21:59;;;;;;;12.77;6.15;;;21.40;92.00;;;;;;5072649;28;20534;-81
2021/06/29 06:24:25;;;;;;;21.60;9.45;;;21.40;91.90;;;;;;5071768;28;20033;-81
2021/06/29 06:26:51;;;;;;;20.00;10.02;;;21.50;91.80;;;;;;5073864;28;20029;-81
2021/06/29 06:29:16;;;;;;;20.88;10.52;;;21.60;91.70;;;;;;5072259;28;20021;-81
2021/06/29 06:31:42;;;;;;;20.42;10.10;;;21.60;91.60;;;;;;5071601;28;20354;-81
2021/06/29 06:34:08;;;;;;;23.23;11.13;;;21.70;91.50;;;;;;5072184;28;20029;-80
2021/06/29 06:36:34;;;;;;;19.13;9.77;;;21.70;91.50;;;;;;5071699;28;20336;-82
2021/06/29 06:38:59;;;;;;;19.85;10.68;;;21.70;91.50;;;;;;5072161;28;20111;-80
2021/06/29 06:41:25;;;;;;;20.80;10.60;;;21.70;91.50;;;;;;5071106;28;20447;-80
2021/06/29 06:43:51;;;;;;;26.13;11.50;;;21.70;91.50;;;;;;5072913;28;20036;-82
2021/06/29 06:46:16;;;;;;;22.73;11.73;;;21.70;91.40;;;;;;5073269;28;20025;-81
2021/06/29 06:48:42;;;;;;;20.60;11.27;;;21.70;91.40;;;;;;5072594;28;20051;-82
2021/06/29 06:51:09;;;;;;;19.80;10.50;;;21.70;91.40;;;;;;5071890;28;20107;-83
2021/06/29 06:53:36;;;;;;;20.40;10.77;;;21.70;91.40;;;;;;5071224;28;20494;-81
2021/06/29 06:56:02;;;;;;;21.92;10.98;;;21.70;91.30;;;;;;5071696;28;20419;-80
2021/06/29 06:58:28;;;;;;;19.60;10.43;;;21.70;91.40;;;;;;5072073;28;20025;-81
2021/06/29 07:00:54;;;;;;;20.48;11.10;;;21.70;91.40;;;;;;5071566;28;20020;-81
2021/06/29 07:03:20;;;;;;;23.02;11.27;;;21.70;91.40;;;;;;5071467;28;20044;-82
2021/06/29 07:05:45;;;;;;;22.20;9.95;;;21.80;91.30;;;;;;5072376;28;20031;-81
2021/06/29 07:08:11;;;;;;;23.30;11.13;;;21.80;91.30;;;;;;5072394;28;20483;-81
2021/06/29 07:10:37;;;;;;;20.50;11.50;;;21.80;91.30;;;;;;5072193;28;20453;-81
2021/06/29 07:13:02;;;;;;;20.58;11.95;;;21.70;91.30;;;;;;5071535;28;20033;-81
2021/06/29 07:15:29;;;;;;;20.58;10.50;;;21.70;91.40;;;;;;5070948;28;20441;-81
2021/06/29 07:17:55;;;;;;;19.75;9.52;;;21.60;91.50;;;;;;5071205;28;20052;-81
2021/06/29 07:20:22;;;;;;;23.02;12.30;;;21.60;91.50;;;;;;5071398;28;20025;-81
2021/06/29 07:22:48;;;;;;;20.10;11.57;;;21.50;91.50;;;;;;5071162;28;20044;-81
2021/06/29 07:25:14;;;;;;;20.00;11.30;;;21.50;91.60;;;;;;5070382;28;20123;-81
2021/06/29 07:27:40;;;;;;;19.15;11.15;;;21.50;91.60;;;;;;5070591;28;20035;-81
2021/06/29 07:30:09;;;;;;;20.15;10.48;;;21.50;91.60;;;;;;5072748;28;20024;-81
2021/06/29 07:32:35;;;;;;;22.15;11.77;;;21.40;91.60;;;;;;5071564;28;20047;-81
2021/06/29 07:35:02;;;;;;;23.40;12.27;;;21.40;91.60;;;;;;5070993;28;20087;-81
2021/06/29 07:37:27;;;;;;;19.25;11.15;;;21.30;91.60;;;;;;5071427;28;20380;-81
2021/06/29 07:39:53;;;;;;;18.83;11.43;;;21.20;91.70;;;;;;5070993;28;20017;-80
2021/06/29 07:42:19;;;;;;;21.85;11.45;;;21.20;91.80;;;;;;5070890;28;20029;-81
2021/06/29 07:44:44;;;;;;;25.17;12.27;;;21.20;91.80;;;;;;5070252;28;20029;-81
2021/06/29 07:47:10;;;;;;;23.30;12.43;;;21.30;91.80;;;;;;5070888;28;20053;-81
2021/06/29 07:49:36;;;;;;;21.65;12.85;;;21.30;91.80;;;;;;5070203;28;20112;-81
2021/06/29 07:52:02;;;;;;;21.58;11.50;;;21.30;91.80;;;;;;5070861;28;20019;-80
2021/06/29 07:54:27;;;;;;;21.00;11.93;;;21.30;91.80;;;;;;5070106;28;20021;-81
2021/06/29 07:56:53;;;;;;;22.92;12.23;;;21.30;91.80;;;;;;5070742;28;20024;-80
2021/06/29 07:59:19;;;;;;;20.13;11.20;;;21.20;91.80;;;;;;5072113;28;20070;-80
2021/06/29 08:01:44;;;;;;;20.02;10.65;;;21.20;91.90;;;;;;5070073;28;20309;-81
2021/06/29 08:04:10;;;;;;;23.05;11.85;;;21.10;92.00;;;;;;5071916;28;20032;-80
2021/06/29 08:06:36;;;;;;;23.63;12.32;;;21.10;92.00;;;;;;5069743;28;20385;-80
2021/06/29 08:09:02;;;;;;;19.75;10.52;;;21.00;92.20;;;;;;5070960;28;20039;-79
2021/06/29 08:11:28;;;;;;;18.85;10.55;;;20.80;92.40;;;;;;5069701;28;20035;-80
2021/06/29 08:13:54;;;;;;;20.75;11.10;;;20.60;92.60;;;;;;5070568;28;20025;-80
2021/06/29 08:16:19;;;;;;;21.30;11.57;;;20.60;92.80;;;;;;5070585;28;20031;-80
2021/06/29 08:18:45;;;;;;;23.17;12.90;;;20.60;92.80;;;;;;5069986;28;20056;-80
2021/06/29 08:21:11;;;;;;;20.00;11.45;;;20.60;92.90;;;;;;5070529;28;20032;-79
2021/06/29 08:23:37;;;;;;;22.52;11.48;;;20.60;92.90;;;;;;5071165;28;20029;-79
2021/06/29 08:26:04;;;;;;;23.08;11.20;;;20.60;92.90;;;;;;5070343;28;20031;-80
2021/06/29 08:28:33;;;;;;;18.05;9.60;;;20.70;92.80;;;;;;5069797;28;20357;-80
2021/06/29 08:31:00;;;;;;;21.52;11.55;;;20.80;92.80;;;;;;5070357;28;20020;-79
2021/06/29 08:33:25;;;;;;;18.08;10.45;;;20.90;92.70;;;;;;5070433;28;20058;-79
2021/06/29 08:35:51;;;;;;;21.77;11.32;;;20.90;92.60;;;;;;5071105;28;20021;-80
2021/06/29 08:38:19;;;;;;;20.45;11.63;;;20.90;92.60;;;;;;5074457;28;20071;-79
2021/06/29 08:40:45;;;;;;;21.40;11.75;;;20.90;92.70;;;;;;5073865;28;20046;-80
2021/06/29 08:43:12;;;;;;;20.08;10.13;;;21.00;92.60;;;;;;5074187;28;20024;-79
2021/06/29 08:45:38;;;;;;;18.58;9.95;;;21.00;92.60;;;;;;5075021;28;20043;-80
2021/06/29 08:48:05;;;;;;;20.55;10.20;;;21.00;92.50;;;;;;5075517;28;20025;-80
2021/06/29 08:50:31;;;;;;;19.40;10.95;;;21.00;92.60;;;;;;5074663;28;20024;-80
2021/06/29 08:53:02;;;;;;;17.10;9.73;;;21.00;92.60;;;;;;5075565;28;20098;-79
2021/06/29 08:55:31;;;;;;;21.50;10.15;;;20.90;92.60;;;;;;5075214;28;20047;-79
2021/06/29 08:57:57;;;;;;;17.73;10.65;;;20.90;92.70;;;;;;5075333;28;20070;-80
2021/06/29 09:00:23;;;;;;;18.05;9.40;;;20.90;92.70;;;;;;5073827;28;20021;-80
2021/06/29 09:02:48;;;;;;;18.25;10.68;;;20.80;92.60;;;;;;5073307;28;20494;-80
2021/06/29 09:05:26;;;;;;;23.35;11.50;;;20.80;92.70;;;;;;5075151;28;20061;-80
2021/06/29 09:08:14;;;;;;;21.20;11.27;;;20.70;92.70;;;;;;5074509;28;20123;-79
2021/06/29 09:10:43;;;;;;;21.77;12.02;;;20.70;92.80;;;;;;5073400;28;20380;-79
2021/06/29 09:13:18;;;;;;;21.60;11.85;;;20.50;92.90;;;;;;5073689;28;20456;-78
2021/06/29 09:15:45;;;;;;;24.05;12.52;;;20.40;93.10;;;;;;5073034;28;20461;-77
2021/06/29 09:18:20;;;;;;;25.05;11.73;;;20.40;93.20;;;;;;5073595;28;20024;-79
2021/06/29 09:20:56;;;;;;;23.52;11.88;;;20.50;93.30;;;;;;5072919;28;20077;-78
2021/06/29 09:23:26;;;;;;;27.15;13.20;;;20.40;93.20;;;;;;5074977;28;20040;-77
2021/06/29 09:26:08;;;;;;;22.17;12.00;;;20.40;93.30;;;;;;5074175;28;20070;-77
2021/06/29 09:28:38;;;;;;;25.10;12.10;;;20.40;93.30;;;;;;5072939;28;20059;-78
2021/06/29 09:31:06;;;;;;;26.33;13.18;;;20.40;93.40;;;;;;5073325;28;20059;-78
2021/06/29 09:33:35;;;;;;;23.77;14.00;;;20.30;93.40;;;;;;5072555;28;20460;-78
2021/06/29 09:36:06;;;;;;;24.88;13.13;;;20.40;93.40;;;;;;5073295;28;20032;-78
2021/06/29 09:38:37;;;;;;;26.35;13.77;;;20.50;93.30;;;;;;5072786;28;20020;-79
2021/06/29 09:41:09;;;;;;;27.33;13.95;;;20.60;93.20;;;;;;5073374;28;20021;-78
2021/06/29 09:43:39;;;;;;;30.35;14.75;;;20.80;93.20;;;;;;5073736;28;20033;-78
2021/06/29 09:46:14;;;;;;;26.85;14.38;;;21.00;93.00;;;;;;5073271;28;20023;-78
2021/06/29 09:49:01;;;;;;;24.27;13.18;;;21.10;92.70;;;;;;5071997;28;20158;-78
2021/06/29 09:51:29;;;;;;;27.00;14.40;;;21.20;92.60;;;;;;5073130;28;20109;-79
2021/06/29 09:54:06;;;;;;;27.67;13.98;;;21.40;92.40;;;;;;5072412;28;20381;-79
2021/06/29 09:56:39;;;;;;;28.30;14.55;;;21.60;92.30;;;;;;5074407;28;20058;-79
2021/06/29 09:59:11;;;;;;;25.90;14.32;;;21.70;92.00;;;;;;5073054;28;20031;-78
2021/06/29 10:01:37;;;;;;;25.60;14.10;;;21.80;91.90;;;;;;5072281;28;20036;-79
2021/06/29 10:04:04;;;;;;;26.40;14.15;;;21.80;91.90;;;;;;5072707;28;20036;-78
2021/06/29 10:06:32;;;;;;;28.10;13.75;;;21.90;91.80;;;;;;5072825;28;20356;-78
2021/06/29 10:09:02;;;;;;;28.90;15.43;;;21.90;91.70;;;;;;5073499;28;20071;-78
2021/06/29 10:11:34;;;;;;;26.60;14.67;;;22.00;91.70;;;;;;5072769;28;20059;-78
2021/06/29 10:14:03;;;;;;;28.38;14.70;;;22.00;91.60;;;;;;5072896;28;20029;-79
2021/06/29 10:16:32;;;;;;;27.52;14.05;;;22.10;91.50;;;;;;5072547;28;20029;-77
2021/06/29 10:21:27;;;;;;;25.42;13.98;;;22.20;91.20;;;;;;5073841;28;20067;-79
2021/06/29 10:23:54;;;;;;;22.02;11.15;;;22.30;91.20;;;;;;5071649;28;20029;-79
2021/06/29 10:26:21;;;;;;;22.48;13.43;;;22.30;91.10;;;;;;5072429;28;20044;-79
2021/06/29 10:28:48;;;;;;;27.08;14.32;;;22.20;91.00;;;;;;5073169;28;20078;-79
2021/06/29 10:31:26;;;;;;;23.45;13.20;;;22.20;91.00;;;;;;5072783;28;20078;-78
2021/06/29 10:33:54;;;;;;;23.38;13.93;;;22.20;91.30;;;;;;5071853;28;20082;-77
2021/06/29 10:36:22;;;;;;;23.70;13.25;;;22.30;90.90;;;;;;5072243;28;20069;-78
2021/06/29 10:38:50;;;;;;;21.05;12.88;;;22.30;90.80;;;;;;5071714;28;20025;-78
2021/06/29 10:41:16;;;;;;;25.40;13.45;;;22.40;90.60;;;;;;5072204;28;20021;-78
2021/06/29 10:43:43;;;;;;;18.85;11.52;;;22.50;90.50;;;;;;5071407;28;20055;-79
2021/06/29 10:46:28;;;;;;;20.33;11.93;;;22.60;90.20;;;;;;5072345;28;20066;-78
2021/06/29 10:48:57;;;;;;;20.67;12.52;;;22.70;90.10;;;;;;5071185;28;20067;-78
2021/06/29 10:51:37;;;;;;;19.52;12.07;;;22.70;90.00;;;;;;5072220;28;20059;-78
2021/06/29 10:54:04;;;;;;;22.83;13.40;;;22.70;90.00;;;;;;5073672;28;20032;-79
2021/06/29 10:56:53;;;;;;;23.17;13.75;;;22.60;90.10;;;;;;5072065;28;20013;-79
2021/06/29 10:59:31;;;;;;;20.65;12.60;;;22.50;90.20;;;;;;5065968;28;20029;-79
2021/06/29 11:01:57;;;;;;;19.98;12.63;;;22.40;90.30;;;;;;5071779;28;20217;-79
2021/06/29 11:04:44;;;;;;;23.13;12.98;;;22.20;90.40;;;;;;5072109;28;20366;-79
2021/06/29 11:07:30;;;;;;;21.65;12.77;;;22.20;90.50;;;;;;5071424;28;20044;-79
2021/06/29 11:10:30;;;;;;;19.15;11.73;;;22.20;90.50;;;;;;5071557;28;20029;-79
2021/06/29 11:12:59;;;;;;;20.92;11.90;;;22.20;90.50;;;;;;5049519;28;20032;-79
2021/06/29 11:15:54;;;;;;;19.70;12.57;;;22.30;90.40;;;;;;5072853;28;20054;-79
2021/06/29 11:18:41;;;;;;;21.52;12.70;;;22.50;90.20;;;;;;5072673;28;20016;-79
2021/06/29 11:21:09;;;;;;;21.10;12.25;;;22.60;89.90;;;;;;5063920;28;20078;-79
2021/06/29 11:23:37;;;;;;;20.40;11.95;;;22.70;89.70;;;;;;5071166;28;20032;-79
2021/06/29 11:26:02;;;;;;;18.73;11.57;;;22.80;89.40;;;;;;5071650;28;20055;-79
2021/06/29 11:28:34;;;;;;;20.77;11.98;;;23.00;89.00;;;;;;5072554;28;20052;-79
2021/06/29 11:31:11;;;;;;;18.48;11.55;;;23.30;88.40;;;;;;5071678;28;20238;-79
2021/06/29 11:34:15;;;;;;;16.60;11.30;;;23.50;87.70;;;;;;5070517;28;20024;-79
2021/06/29 11:36:47;;;;;;;17.15;10.95;;;23.70;87.00;;;;;;5047936;28;20093;-80
2021/06/29 11:39:18;;;;;;;16.35;10.50;;;23.70;86.40;;;;;;5072708;28;20025;-79
2021/06/29 11:41:58;;;;;;;15.95;10.18;;;23.70;86.50;;;;;;5070602;28;20025;-80
2021/06/29 11:44:24;;;;;;;16.60;10.25;;;23.70;86.60;;;;;;5071413;28;20392;-79
2021/06/29 11:46:50;;;;;;;16.63;10.05;;;23.70;86.50;;;;;;5070072;28;20031;-80
2021/06/29 11:49:25;;;;;;;15.30;9.73;;;23.90;86.10;;;;;;5070394;28;20028;-80
2021/06/29 11:51:55;;;;;;;15.30;9.75;;;24.30;85.30;;;;;;5071368;28;20032;-80
2021/06/29 11:54:33;;;;;;;11.32;7.70;;;24.70;84.50;;;;;;5070835;28;20383;-78
2021/06/29 11:57:01;;;;;;;13.45;8.45;;;25.10;83.40;;;;;;5070180;28;20495;-79
2021/06/29 11:59:31;;;;;;;12.25;7.85;;;25.30;82.70;;;;;;5072047;28;20037;-79
2021/06/29 12:02:23;;;;;;;12.53;8.53;;;25.40;81.90;;;;;;5070168;28;20087;-79
2021/06/29 12:04:55;;;;;;;10.98;6.50;;;25.20;81.60;;;;;;5070988;28;20037;-80
2021/06/29 12:07:36;;;;;;;11.68;7.32;;;25.20;82.50;;;;;;5070385;28;20048;-79
2021/06/29 12:10:30;;;;;;;11.90;7.70;;;25.10;81.60;;;;;;5069695;28;20203;-79
2021/06/29 12:13:03;;;;;;;12.63;6.95;;;25.30;81.30;;;;;;5071520;28;20025;-79
2021/06/29 12:15:42;;;;;;;11.75;7.50;;;25.50;80.70;;;;;;5072386;28;20134;-79
2021/06/29 12:18:21;;;;;;;9.73;6.80;;;25.50;80.40;;;;;;5071856;28;20475;-79
2021/06/29 12:20:55;;;;;;;10.00;6.80;;;25.30;80.60;;;;;;5069997;28;20021;-79
2021/06/29 12:23:24;;;;;;;9.13;6.47;;;25.20;80.70;;;;;;5071810;28;20041;-79
2021/06/29 12:25:54;;;;;;;9.77;6.70;;;25.20;80.90;;;;;;5069673;28;20029;-80
2021/06/29 12:28:28;;;;;;;8.63;6.70;;;25.30;80.40;;;;;;5070499;28;20021;-79
2021/06/29 12:31:02;;;;;;;13.88;6.88;;;25.10;80.20;;;;;;5069840;28;20433;-80
2021/06/29 12:33:39;;;;;;;9.98;6.55;;;25.10;80.60;;;;;;5071693;28;20029;-79
2021/06/29 12:36:08;;;;;;;10.52;5.90;;;25.30;80.00;;;;;;5069826;28;20129;-79
2021/06/29 12:38:41;;;;;;;9.10;6.07;;;25.40;79.60;;;;;;5071958;28;20028;-79
2021/06/29 12:41:15;;;;;;;10.27;5.55;;;25.60;79.00;;;;;;5071192;28;20060;-79
2021/06/29 12:43:54;;;;;;;8.32;5.63;;;25.80;78.30;;;;;;5071697;28;20040;-79
2021/06/29 12:46:44;;;;;;;9.40;5.32;;;26.20;77.20;;;;;;5071738;28;20024;-80